Rm Thomas — FNMP — position and weather

sailwx.info

Track history (hours):
 
Tides and Currents Weather Stations Pressure Air Temp Water Temp Dewpoint Dewpoint Depression Visibility Wind Speed Wind Dir Waves Ship Positions

Rm Thomas

Last reported at 2017-May-23 09:29 UTC. Time now 2017-May-25 16:11 UTC.
Position N 45°14' W 000°44'.

Length 25 m; draft 4 m.

Type: Tug. MMSI: 228278700.

Date/timePositionNaut miles runAvg speedWind from/ knotsBaromVisibWave heightAir tempDewpointWater temp
2017-May-23 09:29N 45°14' W 000°44'0 0.1
2017-May-23 08:56N 45°14' W 000°44'0 0.1
2017-May-23 08:19N 45°14' W 000°44'0 0.1
2017-May-23 07:25N 45°14' W 000°44'0 0.0
2017-May-23 05:30N 45°14' W 000°44'0 0.1
2017-May-23 04:57N 45°14' W 000°44'0 0.5
2017-May-23 04:19N 45°13' W 000°44'412.2
2017-May-23 03:59N 45°09' W 000°43'5 9.8
2017-May-23 03:26N 45°05' W 000°39'  
2017-May-17 07:34N 45°00' W 000°34'0 2.0
2017-May-17 07:28N 45°00' W 000°34'3 5.4
2017-May-17 06:55N 44°57' W 000°33'2 5.4
2017-May-17 06:30N 44°55' W 000°33'2 3.4
2017-May-17 05:55N 44°53' W 000°32'0 0.0
2017-May-17 05:29N 44°53' W 000°32'0 0.0
2017-May-17 05:00N 44°53' W 000°32'0 0.0
2017-May-17 04:29N 44°53' W 000°32'0 0.0
2017-May-17 03:58N 44°53' W 000°32'0 0.0
2017-May-17 03:25N 44°53' W 000°32'0 0.0
2017-May-16 23:04N 44°53' W 000°32'0 0.0
2017-May-16 23:00N 44°53' W 000°32'0 0.8
2017-May-16 22:30N 44°54' W 000°32'5 9.8
2017-May-16 22:00N 44°59' W 000°32'510.3
2017-May-16 21:30N 45°03' W 000°37'612.3
2017-May-16 21:00N 45°08' W 000°42'6 5.3
2017-May-16 19:49N 45°14' W 000°45'0 0.3
2017-May-16 19:28N 45°13' W 000°45'2 3.4
2017-May-16 19:00N 45°15' W 000°45'1 2.2
2017-May-16 18:30N 45°14' W 000°45'1 2.3
2017-May-16 17:59N 45°13' W 000°44'2 3.0
2017-May-16 17:25N 45°11' W 000°43'20 2.0
2017-May-16 07:28N 44°53' W 000°32'0 0.0
2017-May-16 07:00N 44°53' W 000°32'0 0.0
2017-May-16 06:24N 44°53' W 000°32'0 0.0
2017-May-16 05:44N 44°53' W 000°32'0 0.0
2017-May-16 05:29N 44°53' W 000°32'0 0.0
2017-May-16 00:47N 44°53' W 000°32'0 0.0
2017-May-14 04:09N 44°53' W 000°32'0 0.0
2017-May-14 03:59N 44°53' W 000°32'  
Track history (hours):
 
Tides and Currents Weather Stations Pressure Air Temp Water Temp Dewpoint Dewpoint Depression Visibility Wind Speed Wind Dir Waves Ship Positions

Rm Thomas

Last reported at 2017-May-23 09:29 UTC. Time now 2017-May-25 16:11 UTC.
Position N 45°14' W 000°44'.

Length 25 m; draft 4 m.

Type: Tug. MMSI: 228278700.

Date/timePositionNaut miles runAvg speedWind from/ knotsBaromVisibWave heightAir tempDewpointWater temp
2017-May-23 09:29N 45°14' W 000°44'0 0.1
2017-May-23 08:56N 45°14' W 000°44'0 0.1
2017-May-23 08:19N 45°14' W 000°44'0 0.1
2017-May-23 07:25N 45°14' W 000°44'0 0.0
2017-May-23 05:30N 45°14' W 000°44'0 0.1
2017-May-23 04:57N 45°14' W 000°44'0 0.5
2017-May-23 04:19N 45°13' W 000°44'412.2
2017-May-23 03:59N 45°09' W 000°43'5 9.8
2017-May-23 03:26N 45°05' W 000°39'  
2017-May-17 07:34N 45°00' W 000°34'0 2.0
2017-May-17 07:28N 45°00' W 000°34'3 5.4
2017-May-17 06:55N 44°57' W 000°33'2 5.4
2017-May-17 06:30N 44°55' W 000°33'2 3.4
2017-May-17 05:55N 44°53' W 000°32'0 0.0
2017-May-17 05:29N 44°53' W 000°32'0 0.0
2017-May-17 05:00N 44°53' W 000°32'0 0.0
2017-May-17 04:29N 44°53' W 000°32'0 0.0
2017-May-17 03:58N 44°53' W 000°32'0 0.0
2017-May-17 03:25N 44°53' W 000°32'0 0.0
2017-May-16 23:04N 44°53' W 000°32'0 0.0
2017-May-16 23:00N 44°53' W 000°32'0 0.8
2017-May-16 22:30N 44°54' W 000°32'5 9.8
2017-May-16 22:00N 44°59' W 000°32'510.3
2017-May-16 21:30N 45°03' W 000°37'612.3
2017-May-16 21:00N 45°08' W 000°42'6 5.3
2017-May-16 19:49N 45°14' W 000°45'0 0.3
2017-May-16 19:28N 45°13' W 000°45'2 3.4
2017-May-16 19:00N 45°15' W 000°45'1 2.2
2017-May-16 18:30N 45°14' W 000°45'1 2.3
2017-May-16 17:59N 45°13' W 000°44'2 3.0
2017-May-16 17:25N 45°11' W 000°43'20 2.0
2017-May-16 07:28N 44°53' W 000°32'0 0.0
2017-May-16 07:00N 44°53' W 000°32'0 0.0
2017-May-16 06:24N 44°53' W 000°32'0 0.0
2017-May-16 05:44N 44°53' W 000°32'0 0.0
2017-May-16 05:29N 44°53' W 000°32'0 0.0
2017-May-16 00:47N 44°53' W 000°32'0 0.0
2017-May-14 04:09N 44°53' W 000°32'0 0.0
2017-May-14 03:59N 44°53' W 000°32'  

Dump ship's entire track history